Pawnee, OK

8:59 PM CST on December 03, 2016 (GMT -0600)
Pawnee Bill's Neighborhood | | Change Station

Elev 879 ft 36.33 °N, 96.81 °W | Updated 33 seconds ago

Overcast
Overcast
43.3 °F
Feels Like 43 °F
N
2.2
Wind Variable Wind from NNE

Today
High -- | Low -- °F
--% Chance of Precip.
Yesterday
High -- | Low -- °F
Precip. -- in
Pressure 30.07 in
Visibility 6.0 miles
Clouds Overcast 600 ft
Windchill 43 °F
Dew Point 41 °F
Humidity 93%
Rainfall 0.09 in
Snow Depth Not available.
7:22 AM 5:11 PM
Waxing Crescent, 19% visible
METAR KSWO 040253Z AUTO 09005KT 6SM BR OVC006 07/06 A3007 RMK AO2 CIG 004V009 SLP183 60004 T00670056 56004
Pressure 30.07 in
Visibility 6.0 miles
Clouds Overcast 600 ft
Windchill 43 °F
Dew Point 41 °F
Humidity 93%
Rainfall 0.09 in
Snow Depth Not available.
7:22 AM 5:11 PM
Waxing Crescent, 19% visible
METAR KSWO 040253Z AUTO 09005KT 6SM BR OVC006 07/06 A3007 RMK AO2 CIG 004V009 SLP183 60004 T00670056 56004

10-Day Weather Forecast

Almanac

Astronomy

Dec. 03, 2016 Rise Set
Actual Time
Civil Twilight
Nautical Twilight
Astronomical Twilight
Moon
Length of Visible Light
Length of Day
Tomorrow will be .
, % of the Moon is Illuminated

Today's Extremes

State Highs State Lows

Community

WunderPhotos

Upload Photos

1,955,566 photos uploaded!

WunderBlog® & News

Nearby

Air Quality

  Air Quality AQ Index Pollutant
Not available.

Snow Depth

Station Depth Elevation

Earthquake Activity

City Distance Mag. Time & Date
Minimum magnitude displayed is 2.5.

Coastal Water Temperatures

Place Temperature

Stations

Nearby Weather Stations

Station Location Temp. Windchill Dew Point Humidity Wind Precip. Elev Updated Type
                   

Watches & Warnings

There are currently no watches in effect.